Weather observations for the past three days for
Knoxville
Metric (Imperial)
Date Time (cdt) Wind (kph) Vis. (km) Weather Sky Cond. Temperature (ºC) Relative Humidity Wind Chill (°C) Heat Index (°C) Pressure Precipitation (cm)
Air Dwpt 6 hour altimeter (cm) sea level (mb) 1 hr 3 hr 6 hr
Max. Min.
04 01:35 S 9 16.09 Fair CLR 25 21 79% 26 75.9 0.0
04 01:15 S 9 16.09 Fair CLR 26 21 74% 27 75.9 0.0
04 00:55 S 7 16.09 Fair CLR 26 21 74% 27 75.92 0.0
04 00:35 S 7 16.09 Fair CLR 26 21 74% 27 75.9 0.0
04 00:15 S 7 16.09 Fair CLR 26 21 74% 27 75.9 0.0
03 23:55 S 7 16.09 Fair CLR 26 21 74% 27 75.9 0.0
03 23:35 S 7 16.09 Fair CLR 27 21 70% 29 75.9 0.0
03 23:15 S 7 16.09 Fair CLR 27 21 70% 29 75.9 0.0
03 22:55 S 7 16.09 Fair CLR 27 21 70% 29 75.9 0.0
03 22:35 S 7 16.09 Fair CLR 27 21 70% 29 75.9 0.0
03 22:15 S 7 16.09 Fair CLR 27 21 70% 29 75.9 0.0
03 21:55 S 9 16.09 Fair CLR 28 21 66% 30 75.87 0.0
03 21:35 S 9 16.09 Fair CLR 28 21 66% 30 75.87 0.0
03 21:15 S 11 16.09 Fair CLR 28 22 70% 31 75.87 0.0
03 20:55 S 13 16.09 Fair CLR 29 22 66% 32 75.84 0.0
03 20:35 S 15 16.09 Fair CLR 29 22 66% 32 75.84 0.0
03 20:15 S 13 16.09 Partly Cloudy SCT160 30 22 62% 33 75.82 0.0
03 19:55 S 13 16.09 Fair CLR 30 22 62% 33 75.79 0.0
03 19:35 S 11 16.09 A Few Clouds FEW160 30 22 62% 33 75.79 0.0
03 19:15 S 13 16.09 Fair CLR 31 22 59% 35 75.79 0.0
03 18:55 S 11 16.09 Fair CLR 32 22 55% 36 75.79 0.0
03 18:35 S 15 16.09 Fair CLR 32 22 55% 36 75.79 0.0
03 18:15 S 17 16.09 Fair CLR 33 22 52% 37 75.79 0.0
03 17:55 S 19 16.09 Fair CLR 33 23 56% 38 75.79 0.0
03 17:35 S 20 16.09 Fair CLR 34 22 50% 38 75.79 0.0
03 17:15 S 17 16.09 Fair CLR 34 22 50% 38 75.82 0.0
03 16:55 S 17 16.09 Fair CLR 34 22 50% 38 75.84 0.0
03 16:35 S 19 16.09 Fair CLR 34 22 50% 38 75.84 0.0
03 15:55 S 19 16.09 Fair CLR 34 23 53% 39 75.87 0.0
03 15:35 S 17 16.09 Fair CLR 34 22 50% 38 75.9 0.0
03 15:15 SW 11 16.09 Fair CLR 34 22 50% 38 75.92 0.0
03 14:55 SW 7 G 19 16.09 Fair CLR 34 22 50% 38 75.92 0.0
03 14:35 SW 22 G 31 16.09 Fair CLR 34 22 50% 38 75.92 0.0
03 14:20 S 11 G 24 16.09 Fair CLR 34 22 50% 38 75.95 0.0
03 13:55 SW 15 G 26 16.09 Fair CLR 34 22 50% 38 75.95 0.0
03 13:35 SW 15 16.09 Fair CLR 33 22 52% 37 75.95 0.0
03 13:15 SW 19 16.09 Fair CLR 33 22 52% 37 75.97 0.0
03 12:55 SW 15 G 26 16.09 Fair CLR 33 22 52% 37 75.97 0.0
03 12:35 SW 17 16.09 Fair CLR 33 22 52% 37 75.97 0.0
03 12:15 S 13 16.09 Fair CLR 33 22 52% 37 75.97 0.0
03 11:55 SW 13 16.09 Fair CLR 32 21 52% 35 75.97 0.0
03 11:35 W 11 16.09 Fair CLR 32 22 55% 36 76 0.0
03 11:15 W 15 G 24 16.09 Fair CLR 32 22 55% 36 76 0.0
03 10:55 SW 11 16.09 Fair CLR 31 22 59% 35 76.02 0.0
03 10:35 S 11 16.09 Fair CLR 31 22 59% 35 76 0.0
03 10:15 SW 11 16.09 Fair CLR 30 22 62% 33 76 0.0
03 09:55 SW 15 16.09 Fair CLR 29 21 62% 31 76 0.0
03 09:35 SW 11 16.09 Fair CLR 29 21 62% 31 76 0.0
03 09:15 SW 13 14.48 Fair CLR 28 21 66% 30 76 0.0
03 08:35 W 9 16.09 Fair CLR 27 21 70% 29 76.02 0.0
03 08:15 S 13 16.09 Fair CLR 26 21 74% 27 76 0.0
03 07:55 S 9 G 20 16.09 Fair CLR 25 21 79% 26 75.97 0.0
03 07:35 S 13 16.09 Fair CLR 24 21 83% 24 75.97 0.0
03 07:15 S 11 16.09 Fair CLR 24 21 83% 24 75.95 0.0
03 06:55 S 13 16.09 Fair CLR 24 21 83% 24 75.95 0.0
03 06:35 S 15 16.09 Fair CLR 24 21 83% 24 75.92 0.0
03 06:15 S 15 16.09 Fair CLR 25 21 79% 26 75.92 0.0
03 05:55 S 15 16.09 Fair CLR 25 21 79% 26 75.9 0.0
03 05:35 S 11 16.09 Fair CLR 25 21 79% 26 75.9 0.0
03 05:15 S 11 16.09 Fair CLR 25 21 79% 26 75.9 0.0
03 04:55 S 13 16.09 Fair CLR 26 21 74% 27 75.87 0.0
03 04:35 S 13 16.09 Fair CLR 26 21 74% 27 75.9 0.0
03 04:20 S 15 16.09 Fair CLR 26 21 74% 27 75.87 0.0
03 03:55 S 15 16.09 Fair CLR 26 21 74% 27 75.9 0.0
03 03:35 S 15 16.09 Fair CLR 26 21 74% 27 75.9 0.0
03 03:15 S 13 16.09 Fair CLR 26 21 74% 27 75.87 0.0
03 02:55 S 13 16.09 Fair CLR 26 21 74% 27 75.9 0.0
03 02:35 S 13 16.09 Fair CLR 26 21 74% 27 75.9 0.0
03 02:15 S 15 16.09 Fair CLR 26 21 74% 27 75.9 0.0
03 01:55 S 11 16.09 Fair CLR 26 21 74% 27 75.9 0.0
03 01:35 S 11 16.09 Fair CLR 26 21 74% 27 75.92 0.0
03 01:15 S 9 16.09 Fair CLR 26 21 74% 27 75.92 0.0
03 00:55 S 11 16.09 Fair CLR 26 21 74% 27 75.92 0.0
03 00:35 S 9 16.09 Fair CLR 26 21 74% 27 75.92 0.0
03 00:15 S 11 16.09 Fair CLR 26 21 74% 27 75.92 0.0
02 23:55 S 11 16.09 Fair CLR 27 21 70% 29 75.92 0.0
02 23:35 S 11 16.09 Fair CLR 27 21 70% 29 75.92 0.0
02 23:15 S 9 16.09 Fair CLR 27 22 74% 29 75.92 0.0
02 22:55 S 9 16.09 Fair CLR 27 22 74% 29 75.92 0.0
02 22:35 S 9 16.09 Fair CLR 27 22 74% 29 75.92 0.0
02 21:30 S 9 16.09 Fair CLR 28 23 74% 31 75.92 0.0
02 21:15 S 9 16.09 Fair CLR 28 22 70% 31 75.92 0.0
02 20:55 S 9 16.09 Fair CLR 29 22 66% 32 75.9 0.0
02 20:35 S 9 16.09 Fair CLR 29 22 66% 32 75.87 0.0
02 20:15 S 11 16.09 Fair CLR 29 22 66% 32 75.87 0.0
02 20:00 S 13 16.09 Fair CLR 30 22 62% 33 75.87 0.0
02 19:35 S 13 16.09 Fair CLR 30 23 66% 34 75.87 0.0
02 19:15 S 11 16.09 Fair CLR 31 23 62% 35 75.87 0.0
02 18:55 S 15 16.09 Fair CLR 32 23 59% 37 75.87 0.0
02 18:35 S 15 16.09 Fair CLR 32 23 59% 37 75.87 0.0
02 18:15 S 15 16.09 Fair CLR 33 23 56% 38 75.87 0.0
02 17:55 S 13 16.09 Fair CLR 34 23 53% 39 75.87 0.0
02 17:35 S 19 16.09 Fair CLR 34 22 50% 38 75.87 0.0
02 17:15 S 11 16.09 Fair CLR 34 23 53% 39 75.9 0.0
02 16:55 S 17 G 28 16.09 Fair CLR 35 22 47% 39 75.9 0.0
02 16:35 S 17 16.09 Fair CLR 34 22 50% 38 75.9 0.0
02 16:15 S 15 G 26 11.27 Fair CLR 34 23 53% 39 75.9 0.0
02 15:55 SW 17 G 28 14.48 Fair CLR 34 22 50% 38 75.92 0.0
02 15:35 S 15 16.09 Fair CLR 34 22 50% 38 75.92 0.0
02 15:15 SW 19 16.09 Fair CLR 34 22 50% 38 75.95 0.0
02 14:55 S 19 16.09 Fair CLR 34 22 50% 38 75.95 0.0
02 14:35 SW 17 G 28 16.09 Fair CLR 34 22 50% 38 75.97 0.0
02 14:15 SW 19 G 30 16.09 Fair CLR 34 22 50% 38 75.97 0.0
02 13:55 S 24 16.09 Fair CLR 33 22 52% 37 76 0.0
02 13:35 SW 22 G 33 16.09 Fair CLR 33 22 52% 37 76.02 0.0
02 13:15 SW 19 16.09 Fair CLR 33 22 52% 37 76.02 0.0
02 12:55 SW 17 16.09 Fair CLR 33 22 52% 37 76.02 0.0
02 12:35 SW 17 16.09 Fair CLR 32 21 52% 35 76.05 0.0
02 12:15 S 15 16.09 Fair CLR 32 21 52% 35 76.07 0.0
02 11:55 S 15 G 26 16.09 Fair CLR 31 21 55% 34 76.07 0.0
02 11:35 S 15 16.09 Fair CLR 31 21 55% 34 76.1 0.0
02 11:15 S 13 16.09 Fair CLR 31 21 55% 34 76.1 0.0
02 10:55 S 11 16.09 Fair CLR 30 20 55% 32 76.1 0.0
02 10:35 S 11 16.09 Fair CLR 30 21 59% 33 76.1 0.0
02 10:15 S 13 16.09 Fair CLR 29 21 62% 31 76.07 0.0
02 09:55 S 15 16.09 Fair CLR 28 21 66% 30 76.07 0.0
02 08:35 S 11 16.09 Fair CLR 23 20 83% 76.1 0.0
02 08:15 S 9 16.09 Fair CLR 23 20 83% 76.12 0.0
02 07:55 Calm 16.09 Fair CLR 23 20 83% 76.12 0.0
02 07:35 S 9 16.09 Fair CLR 23 20 83% 76.12 0.0
02 07:15 Calm 16.09 Fair CLR 23 19 78% 76.12 0.0
02 06:55 Calm 16.09 A Few Clouds FEW100 23 19 78% 76.12 0.0
02 06:35 Calm 16.09 Fair CLR 23 19 78% 76.1 0.0
02 06:15 W 7 G 22 16.09 Mostly Cloudy BKN100 24 19 74% 25 76.1 0.0
02 05:55 NW 26 16.09 Overcast BKN100 OVC120 24 20 78% 24 76.12 0.0
02 05:35 S 11 16.09 Mostly Cloudy BKN100 BKN120 24 20 78% 24 76.02 0.0
02 04:35 S 15 16.09 Partly Cloudy SCT100 25 20 74% 26 76.02 0.0
02 04:15 S 13 16.09 Partly Cloudy SCT100 SCT120 25 20 74% 26 76.02 0.0
02 03:50 S 13 16.09 Fair CLR 25 19 69% 26 76.02 0.0
02 03:35 S 11 16.09 A Few Clouds FEW120 25 19 69% 26 76.02 0.0
02 03:15 S 11 16.09 A Few Clouds FEW120 25 19 69% 26 76.02 0.0
02 02:55 S 13 16.09 Fair CLR 25 19 69% 26 76 0.0
02 02:35 S 11 16.09 Fair CLR 25 19 69% 26 76 0.0
02 02:15 S 15 16.09 Fair CLR 26 19 65% 27 75.97 0.0
02 01:55 S 13 16.09 Fair CLR 26 19 65% 27 75.97 0.0
02 00:55 S 15 16.09 Fair CLR 26 19 65% 27 76 0.0
02 00:35 S 15 16.09 Fair CLR 26 19 65% 27 76 0.0
02 00:15 S 17 16.09 Fair CLR 26 19 65% 27 76 0.0
01 23:55 S 17 16.09 Fair CLR 26 19 65% 27 76 0.0
01 23:35 S 15 16.09 Fair CLR 26 19 65% 27 76.02 0.0
01 23:15 S 9 16.09 Fair CLR 26 20 70% 27 76.02 0.0
01 22:55 S 9 16.09 Fair CLR 26 20 70% 27 76.02 0.0
01 22:35 S 9 16.09 Fair CLR 26 20 70% 27 76.02 0.0
01 21:30 S 7 16.09 Fair CLR 27 21 70% 29 75.97 0.0
01 21:15 S 9 16.09 Fair CLR 28 21 66% 30 75.97 0.0
01 20:55 S 7 16.09 Fair CLR 28 21 66% 30 75.95 0.0
01 20:35 S 9 16.09 Fair CLR 28 22 70% 31 75.95 0.0
01 20:15 S 11 16.09 Fair CLR 29 22 66% 32 75.92 0.0
01 19:55 S 11 16.09 Fair CLR 29 22 66% 32 75.92 0.0
01 19:35 S 11 16.09 Fair CLR 30 22 62% 33 75.92 0.0
01 19:15 S 11 16.09 Fair CLR 31 22 59% 35 75.92 0.0
01 18:55 S 11 16.09 Fair CLR 32 21 52% 35 75.95 0.0
01 18:35 S 13 16.09 Fair CLR 32 21 52% 35 75.95 0.0
01 18:15 S 17 16.09 Fair CLR 33 21 49% 36 75.95 0.0
01 17:55 Calm 16.09 Fair CLR 34 21 47% 37 75.95 0.0
01 17:35 S 17 16.09 Fair CLR 34 22 50% 38 75.97 0.0
01 17:15 S 13 16.09 Fair CLR 34 20 44% 36 75.97 0.0
01 16:55 SW 15 16.09 Fair CLR 34 21 47% 37 75.97 0.0
01 16:35 SW 17 16.09 Fair CLR 35 21 44% 38 75.97 0.0
01 16:15 S 15 16.09 Fair CLR 35 21 44% 38 75.97 0.0
01 15:55 S 19 16.09 Fair CLR 35 20 41% 38 76 0.0
01 15:35 SW 11 G 26 16.09 Fair CLR 35 21 44% 38 76 0.0
01 15:15 SW 13 G 24 16.09 Fair CLR 34 21 47% 37 76.02 0.0
01 14:55 S 13 G 22 16.09 Fair CLR 34 22 50% 38 76.02 0.0
01 14:35 SW 13 0.00 Fair CLR 34 21 47% 37 76.05 0.0
01 14:15 SW 17 16.09 Fair CLR 34 21 47% 37 76.05 0.0
01 13:55 SW 13 16.09 Fair CLR 34 21 47% 37 76.07 0.0
01 13:35 SW 15 16.09 Fair CLR 34 21 47% 37 76.07 0.0
01 13:15 SW 15 16.09 Fair CLR 33 21 49% 36 76.1 0.0
01 12:55 SW 17 16.09 Fair CLR 33 21 49% 36 76.1 0.0
01 12:35 SW 17 16.09 Fair CLR 32 21 52% 35 76.12 0.0
01 12:15 SW 15 16.09 Fair CLR 32 20 49% 34 76.12 0.0
01 11:55 SW 15 16.09 Fair CLR 31 21 55% 34 76.12 0.0
01 11:35 SW 13 16.09 Fair CLR 31 21 55% 34 76.12 0.0
01 11:15 SW 19 16.09 Fair CLR 31 20 52% 33 76.12 0.0
01 10:55 SW 15 16.09 Fair CLR 30 20 55% 32 76.12 0.0
01 10:35 SW 17 16.09 Fair CLR 30 20 55% 32 76.12 0.0
01 10:15 S 15 16.09 Fair CLR 29 21 62% 31 76.12 0.0
01 10:00 S 15 16.09 Fair CLR 28 21 66% 30 76.12 0.0
01 09:35 S 15 16.09 Fair CLR 27 21 70% 29 76.12 0.0
01 08:35 S 9 16.09 Fair CLR 25 22 83% 26 76.15 0.0
01 08:15 S 7 16.09 Fair CLR 25 22 83% 26 76.15 0.0
01 07:55 S 7 16.09 Fair CLR 24 22 89% 24 76.15 0.0
01 07:35 S 9 16.09 Fair CLR 23 22 94% 76.12 0.0
01 07:15 S 9 16.09 Fair CLR 23 22 94% 76.12 0.0
01 06:55 S 9 16.09 Fair CLR 23 22 94% 76.12 0.0
01 06:35 Calm 16.09 Fair CLR 23 22 94% 76.1 0.0
01 06:15 S 9 16.09 Fair CLR 23 22 94% 76.1 0.0
01 05:55 S 7 16.09 Fair CLR 23 22 94% 76.1 0.0
01 05:35 Calm 16.09 Partly Cloudy SCT120 24 22 89% 24 76.1 0.0
01 05:15 Calm 16.09 Mostly Cloudy BKN120 24 22 89% 24 76.07 0.0
01 04:55 Calm 16.09 Partly Cloudy SCT120 25 22 83% 26 76.07 0.0
01 04:35 Calm 16.09 Mostly Cloudy BKN120 25 22 83% 26 76.07 0.0
01 04:15 N 6 16.09 Overcast OVC120 25 22 83% 26 76.07 0.0
01 03:55 Calm 16.09 Mostly Cloudy BKN120 25 22 83% 26 76.07 0.0
01 03:35 SW 6 16.09 A Few Clouds FEW120 25 22 83% 26 76.07 0.0
01 03:15 SW 7 16.09 A Few Clouds FEW120 25 22 83% 26 76.05 0.0
01 02:55 SW 9 16.09 A Few Clouds FEW120 25 23 89% 26 76.07 0.0
01 02:35 SW 9 16.09 Fair CLR 25 23 89% 26 76.07 0.0
01 02:15 SW 9 0.00 Partly Cloudy SCT120 25 23 89% 26 76.07 0.0
01 01:55 S 9 16.09 Overcast BKN120 OVC140 25 24 94% 26 76.1 0.0
Date Time (cdt) Wind (kph) Vis. (km) Weather Sky Cond. Air Dwpt Max. Min. Relative Humidity Wind Chill (°C) Heat Index (°C) altimeter (cm) sea level (mb) 1 hr 3 hr 6 hr
6 hour
Temperature (ºC) Pressure Precipitation (cm)